createdAt,value
2023-01-13T00:00:48.751Z,53.83
2023-01-13T00:01:48.740Z,53.61
2023-01-13T00:02:48.733Z,59.71
2023-01-13T00:03:48.726Z,57.80
2023-01-13T00:04:48.797Z,55.20
2023-01-13T00:05:48.741Z,54.36
2023-01-13T00:06:48.685Z,59.11
2023-01-13T00:07:48.735Z,56.78
2023-01-13T00:08:48.682Z,56.63
2023-01-13T00:09:48.680Z,55.24
2023-01-13T00:10:48.652Z,54.43
2023-01-13T00:11:48.671Z,54.74
2023-01-13T00:12:48.668Z,55.59
2023-01-13T00:13:48.674Z,61.62
2023-01-13T00:14:48.637Z,55.37
2023-01-13T00:15:48.792Z,57.92
2023-01-13T00:16:48.627Z,66.76
2023-01-13T00:17:48.659Z,65.31
2023-01-13T00:18:48.607Z,55.36
2023-01-13T00:19:48.652Z,60.60
2023-01-13T00:20:48.592Z,65.60
2023-01-13T00:21:48.591Z,61.12
2023-01-13T00:22:48.604Z,64.70
2023-01-13T00:23:48.585Z,54.69
2023-01-13T00:24:48.548Z,54.13
2023-01-13T00:25:49.578Z,60.36
2023-01-13T00:26:48.555Z,53.93
2023-01-13T00:27:48.602Z,65.48
2023-01-13T00:28:48.544Z,61.86
2023-01-13T00:29:48.559Z,54.11
2023-01-13T00:30:48.522Z,53.26
2023-01-13T00:31:48.512Z,53.69
2023-01-13T00:32:48.506Z,61.21
2023-01-13T00:33:48.515Z,54.41
2023-01-13T00:34:48.513Z,53.94
2023-01-13T00:35:48.492Z,63.31
2023-01-13T00:36:48.497Z,54.06
2023-01-13T00:37:48.473Z,53.50
2023-01-13T00:38:48.494Z,54.00
2023-01-13T00:39:48.468Z,54.09
2023-01-13T00:40:48.459Z,59.13
2023-01-13T00:41:48.466Z,60.64
2023-01-13T00:42:48.489Z,60.80
2023-01-13T00:43:48.443Z,55.95
2023-01-13T00:44:48.457Z,56.13
2023-01-13T00:45:48.431Z,60.00
2023-01-13T00:46:48.467Z,55.47
2023-01-13T00:47:48.431Z,58.33
2023-01-13T00:48:48.421Z,63.53
2023-01-13T00:49:48.405Z,54.70
2023-01-13T00:50:48.393Z,54.02
2023-01-13T00:51:48.397Z,59.32
2023-01-13T00:52:48.377Z,60.36
2023-01-13T00:53:48.375Z,60.89
2023-01-13T00:54:48.432Z,54.08
2023-01-13T00:55:48.355Z,54.33
2023-01-13T00:56:48.358Z,57.13
2023-01-13T00:57:48.368Z,53.24
2023-01-13T00:58:48.379Z,65.50
2023-01-13T00:59:49.603Z,54.85
2023-01-13T01:00:49.362Z,54.85
2023-01-13T01:01:48.433Z,59.54
2023-01-13T01:02:48.361Z,63.57
2023-01-13T01:03:48.336Z,53.76
2023-01-13T01:04:48.349Z,56.39
2023-01-13T01:05:48.336Z,54.03
2023-01-13T01:06:48.288Z,53.41
2023-01-13T01:07:48.290Z,53.39
2023-01-13T01:08:48.331Z,59.52
2023-01-13T01:09:48.278Z,66.88
2023-01-13T01:10:48.387Z,54.26
2023-01-13T01:11:48.266Z,54.58
2023-01-13T01:12:48.301Z,54.65
2023-01-13T01:13:48.251Z,54.13
2023-01-13T01:14:48.260Z,54.08
2023-01-13T01:15:48.295Z,53.24
2023-01-13T01:16:48.290Z,58.33
2023-01-13T01:17:48.222Z,57.36
2023-01-13T01:18:49.200Z,53.76
2023-01-13T01:19:48.293Z,58.83
2023-01-13T01:20:48.187Z,53.38
2023-01-13T01:21:48.225Z,59.58
2023-01-13T01:22:48.175Z,57.93
2023-01-13T01:23:48.163Z,60.26
2023-01-13T01:24:48.160Z,55.52
2023-01-13T01:25:49.172Z,54.10
2023-01-13T01:26:48.170Z,58.76
2023-01-13T01:27:48.143Z,62.78
2023-01-13T01:28:48.198Z,59.02
2023-01-13T01:29:48.116Z,54.08
2023-01-13T01:30:48.131Z,58.21
2023-01-13T01:31:48.183Z,53.34
2023-01-13T01:32:48.104Z,54.10
2023-01-13T01:33:48.096Z,55.36
2023-01-13T01:34:48.110Z,53.82
2023-01-13T01:35:48.108Z,64.19
2023-01-13T01:36:48.079Z,54.70
2023-01-13T01:37:48.078Z,62.76
2023-01-13T01:38:48.074Z,56.34
2023-01-13T01:39:48.066Z,54.34
2023-01-13T01:40:48.068Z,56.59
2023-01-13T01:41:48.071Z,59.08
2023-01-13T01:42:49.063Z,56.24
2023-01-13T01:43:48.062Z,56.18
2023-01-13T01:44:49.849Z,57.62
2023-01-13T01:45:48.032Z,56.83
2023-01-13T01:46:48.048Z,55.55
2023-01-13T01:47:48.016Z,53.91
2023-01-13T01:48:48.066Z,53.98
2023-01-13T01:49:47.990Z,54.71
2023-01-13T01:50:47.983Z,54.18
2023-01-13T01:51:47.977Z,55.87
2023-01-13T01:52:47.976Z,58.32
2023-01-13T01:53:47.974Z,53.24
2023-01-13T01:54:47.994Z,53.77
2023-01-13T01:55:47.958Z,53.76
2023-01-13T01:56:47.941Z,53.42
2023-01-13T01:57:47.940Z,53.52
2023-01-13T01:58:47.958Z,54.84
2023-01-13T01:59:47.972Z,60.44
2023-01-13T02:00:47.985Z,53.21
2023-01-13T02:01:48.152Z,57.00
2023-01-13T02:02:48.054Z,61.35
2023-01-13T02:03:47.909Z,53.65
2023-01-13T02:04:47.904Z,54.20
2023-01-13T02:05:47.902Z,53.30
2023-01-13T02:06:47.898Z,54.69
2023-01-13T02:07:47.897Z,54.47
2023-01-13T02:08:48.033Z,60.53
2023-01-13T02:09:47.882Z,64.43
2023-01-13T02:10:47.880Z,58.52
2023-01-13T02:11:47.855Z,57.52
2023-01-13T02:12:47.858Z,59.13
2023-01-13T02:13:47.848Z,57.97
2023-01-13T02:14:47.831Z,54.45
2023-01-13T02:15:47.857Z,54.01
2023-01-13T02:16:47.814Z,60.52
2023-01-13T02:17:47.804Z,57.31
2023-01-13T02:18:47.794Z,60.23
2023-01-13T02:19:47.800Z,61.10
2023-01-13T02:20:47.790Z,59.73
2023-01-13T02:21:47.784Z,53.45
2023-01-13T02:22:47.776Z,53.71
2023-01-13T02:23:47.761Z,55.16
2023-01-13T02:24:47.774Z,56.26
2023-01-13T02:25:47.852Z,60.43
2023-01-13T02:26:47.739Z,53.44
2023-01-13T02:27:47.749Z,57.90
2023-01-13T02:28:47.750Z,59.56
2023-01-13T02:29:47.755Z,67.86
2023-01-13T02:30:47.717Z,55.34
2023-01-13T02:31:47.737Z,58.76
2023-01-13T02:32:47.702Z,60.66
2023-01-13T02:33:47.725Z,54.09
2023-01-13T02:34:47.712Z,60.12
2023-01-13T02:35:47.698Z,54.62
2023-01-13T02:36:47.684Z,56.61
2023-01-13T02:37:47.690Z,62.59
2023-01-13T02:38:47.730Z,54.26
2023-01-13T02:39:47.661Z,59.13
2023-01-13T02:40:47.719Z,64.81
2023-01-13T02:41:47.679Z,59.01
2023-01-13T02:42:47.667Z,55.17
2023-01-13T02:43:47.652Z,63.58
2023-01-13T02:44:47.649Z,55.46
2023-01-13T02:45:47.678Z,54.75
2023-01-13T02:46:47.616Z,60.06
2023-01-13T02:47:47.630Z,54.28
2023-01-13T02:48:47.625Z,60.36
2023-01-13T02:49:47.675Z,59.55
2023-01-13T02:50:47.598Z,55.59
2023-01-13T02:51:47.583Z,64.45
2023-01-13T02:52:47.594Z,64.34
2023-01-13T02:53:47.571Z,63.53
2023-01-13T02:54:47.573Z,55.20
2023-01-13T02:55:47.587Z,53.69
2023-01-13T02:56:47.593Z,53.67
2023-01-13T02:57:47.543Z,61.12
2023-01-13T02:58:47.544Z,59.26
2023-01-13T02:59:47.565Z,63.64
2023-01-13T03:00:47.587Z,54.72
2023-01-13T03:01:47.653Z,55.58
2023-01-13T03:02:47.598Z,53.62
2023-01-13T03:03:47.541Z,54.11
2023-01-13T03:04:47.509Z,56.96
2023-01-13T03:05:47.503Z,56.67
2023-01-13T03:06:47.528Z,56.16
2023-01-13T03:07:47.542Z,63.58
2023-01-13T03:08:47.537Z,61.49
2023-01-13T03:09:47.484Z,58.93
2023-01-13T03:10:47.489Z,62.44
2023-01-13T03:11:47.471Z,57.78
2023-01-13T03:12:47.479Z,63.57
2023-01-13T03:13:47.475Z,59.56
2023-01-13T03:14:47.452Z,59.33
2023-01-13T03:15:47.452Z,55.53
2023-01-13T03:16:47.478Z,58.73
2023-01-13T03:17:47.408Z,55.62
2023-01-13T03:18:48.432Z,57.33
2023-01-13T03:19:47.420Z,56.11
2023-01-13T03:20:47.404Z,55.17
2023-01-13T03:21:47.398Z,64.96
2023-01-13T03:22:47.385Z,55.94
2023-01-13T03:23:47.392Z,58.40
2023-01-13T03:24:47.383Z,59.50
2023-01-13T03:25:47.363Z,57.38
2023-01-13T03:26:47.381Z,63.89
2023-01-13T03:27:47.362Z,73.14
2023-01-13T03:28:47.348Z,66.20
2023-01-13T03:29:47.348Z,66.19
2023-01-13T03:30:47.374Z,65.56
2023-01-13T03:31:47.357Z,67.66
2023-01-13T03:32:47.320Z,68.32
2023-01-13T03:33:47.343Z,63.98
2023-01-13T03:34:47.318Z,57.66
2023-01-13T03:35:48.363Z,60.87
2023-01-13T03:36:47.319Z,63.64
2023-01-13T03:37:47.296Z,56.07
2023-01-13T03:38:47.307Z,65.32
2023-01-13T03:39:47.296Z,60.02
2023-01-13T03:40:47.274Z,62.51
2023-01-13T03:41:47.300Z,64.70
2023-01-13T03:42:47.248Z,61.06
2023-01-13T03:43:47.286Z,65.89
2023-01-13T03:44:47.252Z,67.21
2023-01-13T03:45:47.266Z,57.73
2023-01-13T03:46:47.287Z,57.69
2023-01-13T03:47:47.222Z,57.53
2023-01-13T03:48:47.244Z,65.09
2023-01-13T03:49:47.223Z,67.44
2023-01-13T03:50:47.212Z,66.92
2023-01-13T03:51:47.299Z,68.75
2023-01-13T03:52:47.197Z,68.99
2023-01-13T03:53:47.214Z,63.54
2023-01-13T03:54:47.217Z,62.78
2023-01-13T03:55:47.185Z,67.53
2023-01-13T03:56:47.193Z,62.80
2023-01-13T03:57:47.216Z,67.37
2023-01-13T03:58:47.155Z,68.96
2023-01-13T03:59:47.161Z,68.46
2023-01-13T04:00:47.152Z,59.16
2023-01-13T04:01:47.293Z,75.06
2023-01-13T04:02:47.165Z,61.58
2023-01-13T04:03:47.142Z,61.80
2023-01-13T04:04:47.115Z,61.08
2023-01-13T04:05:47.127Z,66.95
2023-01-13T04:06:47.101Z,63.56
2023-01-13T04:07:47.114Z,69.31
2023-01-13T04:08:47.130Z,69.19
2023-01-13T04:09:47.082Z,59.42
2023-01-13T04:10:47.097Z,67.57
2023-01-13T04:11:47.073Z,56.34
2023-01-13T04:12:47.093Z,61.86
2023-01-13T04:13:47.061Z,71.60
2023-01-13T04:14:47.054Z,71.26
2023-01-13T04:15:47.112Z,72.30
2023-01-13T04:16:47.040Z,70.59
2023-01-13T04:17:47.030Z,65.09
2023-01-13T04:18:47.047Z,69.65
2023-01-13T04:19:47.057Z,68.20
2023-01-13T04:20:47.010Z,68.94
2023-01-13T04:21:47.005Z,62.07
2023-01-13T04:22:47.032Z,65.30
2023-01-13T04:23:47.032Z,69.06
2023-01-13T04:24:47.030Z,65.30
2023-01-13T04:25:47.014Z,73.15
2023-01-13T04:26:46.981Z,63.13
2023-01-13T04:27:46.973Z,70.39
2023-01-13T04:28:47.010Z,64.14
2023-01-13T04:29:46.973Z,59.09
2023-01-13T04:30:47.008Z,72.38
2023-01-13T04:31:46.960Z,75.51
2023-01-13T04:32:46.950Z,67.57
2023-01-13T04:33:46.923Z,67.06
2023-01-13T04:34:46.930Z,69.81
2023-01-13T04:35:46.931Z,69.65
2023-01-13T04:36:46.950Z,71.61
2023-01-13T04:37:46.902Z,65.40
2023-01-13T04:38:46.913Z,71.15
2023-01-13T04:39:46.912Z,72.61
2023-01-13T04:40:46.896Z,64.09
2023-01-13T04:41:46.932Z,73.13
2023-01-13T04:42:46.865Z,70.97
2023-01-13T04:43:46.864Z,70.56
2023-01-13T04:44:46.909Z,75.06
2023-01-13T04:45:46.855Z,73.08
2023-01-13T04:46:46.862Z,72.99
2023-01-13T04:47:46.913Z,71.24
2023-01-13T04:48:46.832Z,70.31
2023-01-13T04:49:46.831Z,70.92
2023-01-13T04:50:46.813Z,69.37
2023-01-13T04:51:46.828Z,72.55
2023-01-13T04:52:46.828Z,73.10
2023-01-13T04:53:46.806Z,69.92
2023-01-13T04:54:46.811Z,69.34
2023-01-13T04:55:46.791Z,66.16
2023-01-13T04:56:46.789Z,70.31
2023-01-13T04:57:46.906Z,65.19
2023-01-13T04:58:46.772Z,67.14
2023-01-13T04:59:46.766Z,70.89
2023-01-13T05:00:46.803Z,64.60
2023-01-13T05:01:46.823Z,69.46
2023-01-13T05:02:46.740Z,69.67
2023-01-13T05:03:46.793Z,74.73
2023-01-13T05:04:46.735Z,70.40
2023-01-13T05:05:47.714Z,69.46
2023-01-13T05:06:47.506Z,69.08
2023-01-13T05:07:46.704Z,74.85
2023-01-13T05:08:46.709Z,66.78
2023-01-13T05:09:46.693Z,71.49
2023-01-13T05:10:47.560Z,77.40
2023-01-13T05:11:46.674Z,75.13
2023-01-13T05:12:46.669Z,71.71
2023-01-13T05:13:46.752Z,73.69
2023-01-13T05:14:46.659Z,73.93
2023-01-13T05:15:46.698Z,59.40
2023-01-13T05:16:46.649Z,71.87
2023-01-13T05:17:46.651Z,73.94
2023-01-13T05:18:46.629Z,75.27
2023-01-13T05:19:46.656Z,65.63
2023-01-13T05:20:46.622Z,73.37
2023-01-13T05:21:46.618Z,73.06
2023-01-13T05:22:46.696Z,75.05
2023-01-13T05:23:46.604Z,72.05
2023-01-13T05:24:46.596Z,69.03
2023-01-13T05:25:46.607Z,59.99
2023-01-13T05:26:46.593Z,67.94
2023-01-13T05:27:46.572Z,71.31
2023-01-13T05:28:46.594Z,75.04
2023-01-13T05:29:46.563Z,71.71
2023-01-13T05:30:46.650Z,69.56
2023-01-13T05:31:47.039Z,74.81
2023-01-13T05:32:46.604Z,72.50
2023-01-13T05:33:46.542Z,72.76
2023-01-13T05:34:46.526Z,75.26
2023-01-13T05:35:46.576Z,69.56
2023-01-13T05:36:46.522Z,72.99
2023-01-13T05:37:46.518Z,71.74
2023-01-13T05:38:46.546Z,73.62
2023-01-13T05:39:46.494Z,74.30
2023-01-13T05:40:46.481Z,75.61
2023-01-13T05:41:46.537Z,72.71
2023-01-13T05:42:46.471Z,76.24
2023-01-13T05:43:46.513Z,72.05
2023-01-13T05:44:46.458Z,75.89
2023-01-13T05:45:46.446Z,75.08
2023-01-13T05:46:46.562Z,75.80
2023-01-13T05:47:46.459Z,72.79
2023-01-13T05:48:46.423Z,71.78
2023-01-13T05:49:46.452Z,73.88
2023-01-13T05:50:46.442Z,73.93
2023-01-13T05:51:46.431Z,75.24
2023-01-13T05:52:46.442Z,73.40
2023-01-13T05:53:47.033Z,75.53
2023-01-13T05:54:46.395Z,72.01
2023-01-13T05:55:47.052Z,72.93
2023-01-13T05:56:46.380Z,74.33
2023-01-13T05:57:46.390Z,70.23
2023-01-13T05:58:46.382Z,74.26
2023-01-13T05:59:46.384Z,73.12
2023-01-13T06:00:46.381Z,71.59
2023-01-13T06:01:46.382Z,72.47
2023-01-13T06:02:46.386Z,76.18
2023-01-13T06:03:47.018Z,73.96
2023-01-13T06:04:46.449Z,72.56
2023-01-13T06:05:46.328Z,73.94
2023-01-13T06:06:47.305Z,72.18
2023-01-13T06:07:46.765Z,71.68
2023-01-13T06:08:47.034Z,71.64
2023-01-13T06:09:46.293Z,70.52
2023-01-13T06:10:46.301Z,72.66
2023-01-13T06:11:46.469Z,74.40
2023-01-13T06:12:46.324Z,72.68
2023-01-13T06:13:46.273Z,69.70
2023-01-13T06:14:46.329Z,74.52
2023-01-13T06:15:46.384Z,67.36
2023-01-13T06:16:46.340Z,72.38
2023-01-13T06:17:46.237Z,70.33
2023-01-13T06:18:46.259Z,74.77
2023-01-13T06:19:46.258Z,73.65
2023-01-13T06:20:46.214Z,69.36
2023-01-13T06:21:46.217Z,73.55
2023-01-13T06:22:46.273Z,74.44
2023-01-13T06:23:46.217Z,72.80
2023-01-13T06:24:46.189Z,73.06
2023-01-13T06:25:46.279Z,74.37
2023-01-13T06:26:46.176Z,73.94
2023-01-13T06:27:46.184Z,74.58
2023-01-13T06:28:46.328Z,73.78
2023-01-13T06:29:46.154Z,75.09
2023-01-13T06:30:46.189Z,69.40
2023-01-13T06:31:46.255Z,74.45
2023-01-13T06:32:46.145Z,74.66
2023-01-13T06:33:46.130Z,73.16
2023-01-13T06:34:46.185Z,74.45
2023-01-13T06:35:46.124Z,75.07
2023-01-13T06:36:46.130Z,74.95
2023-01-13T06:37:46.221Z,74.44
2023-01-13T06:38:47.111Z,74.21
2023-01-13T06:39:46.105Z,74.79
2023-01-13T06:40:46.170Z,72.54
2023-01-13T06:41:46.110Z,73.57
2023-01-13T06:42:46.085Z,71.98
2023-01-13T06:43:46.168Z,73.78
2023-01-13T06:44:46.068Z,73.65
2023-01-13T06:45:46.074Z,69.71
2023-01-13T06:46:46.936Z,75.54
2023-01-13T06:47:46.081Z,75.55
2023-01-13T06:48:46.039Z,73.50
2023-01-13T06:49:46.085Z,75.90
2023-01-13T06:50:46.033Z,71.75
2023-01-13T06:51:46.051Z,71.38
2023-01-13T06:52:46.064Z,73.62
2023-01-13T06:53:46.014Z,74.96
2023-01-13T06:54:46.014Z,74.27
2023-01-13T06:55:47.061Z,72.83
2023-01-13T06:56:45.997Z,73.29
2023-01-13T06:57:46.012Z,69.13
2023-01-13T06:58:46.026Z,77.83
2023-01-13T06:59:45.980Z,74.40
2023-01-13T07:00:46.003Z,74.35
2023-01-13T07:01:46.192Z,76.13
2023-01-13T07:02:45.985Z,72.55
2023-01-13T07:03:45.955Z,72.25
2023-01-13T07:04:45.980Z,72.70
2023-01-13T07:05:45.934Z,69.02
2023-01-13T07:06:45.938Z,72.73
2023-01-13T07:07:46.010Z,69.16
2023-01-13T07:08:45.920Z,68.07
2023-01-13T07:09:45.908Z,75.17
2023-01-13T07:10:45.951Z,69.70
2023-01-13T07:11:45.912Z,71.32
2023-01-13T07:12:45.901Z,72.93
2023-01-13T07:13:45.942Z,75.85
2023-01-13T07:14:45.885Z,72.94
2023-01-13T07:15:45.891Z,75.77
2023-01-13T07:16:45.988Z,71.34
2023-01-13T07:17:45.861Z,75.75
2023-01-13T07:18:45.867Z,71.78
2023-01-13T07:19:45.860Z,73.68
2023-01-13T07:20:45.855Z,70.81
2023-01-13T07:21:45.838Z,75.88
2023-01-13T07:22:45.851Z,73.65
2023-01-13T07:23:45.843Z,70.34
2023-01-13T07:24:45.819Z,71.06
2023-01-13T07:25:45.832Z,77.33
2023-01-13T07:26:45.866Z,72.94
2023-01-13T07:27:45.822Z,71.22
2023-01-13T07:28:45.823Z,74.57
2023-01-13T07:29:45.792Z,73.70
2023-01-13T07:30:45.784Z,72.83
2023-01-13T07:31:47.603Z,75.16
2023-01-13T07:32:45.771Z,71.45
2023-01-13T07:33:45.800Z,73.66
2023-01-13T07:34:45.775Z,74.00
2023-01-13T07:35:45.749Z,71.06
2023-01-13T07:36:45.743Z,71.96
2023-01-13T07:37:45.759Z,71.70
2023-01-13T07:38:45.755Z,74.02
2023-01-13T07:39:45.743Z,74.86
2023-01-13T07:40:45.726Z,74.66
2023-01-13T07:41:45.719Z,72.17
2023-01-13T07:42:45.715Z,72.36
2023-01-13T07:43:45.719Z,72.35
2023-01-13T07:44:45.736Z,74.77
2023-01-13T07:45:45.761Z,70.97
2023-01-13T07:46:45.691Z,71.31
2023-01-13T07:47:45.709Z,65.94
2023-01-13T07:48:45.681Z,67.02
2023-01-13T07:49:45.689Z,74.99
2023-01-13T07:50:45.666Z,74.02
2023-01-13T07:51:45.678Z,71.98
2023-01-13T07:52:45.690Z,73.46
2023-01-13T07:53:45.677Z,72.03
2023-01-13T07:54:45.667Z,71.45
2023-01-13T07:55:45.698Z,71.19
2023-01-13T07:56:45.775Z,73.01
2023-01-13T07:57:45.685Z,73.44
2023-01-13T07:58:45.682Z,74.01
2023-01-13T07:59:45.665Z,71.81
2023-01-13T08:00:45.671Z,72.42
2023-01-13T08:01:45.779Z,70.12
2023-01-13T08:02:45.654Z,66.20
2023-01-13T08:03:45.681Z,73.64
2023-01-13T08:04:45.602Z,71.62
2023-01-13T08:05:45.594Z,73.80
2023-01-13T08:06:45.619Z,74.54
2023-01-13T08:07:45.567Z,72.84
2023-01-13T08:08:45.558Z,69.04
2023-01-13T08:09:45.589Z,67.01
2023-01-13T08:10:45.579Z,73.28
2023-01-13T08:11:45.558Z,68.77
2023-01-13T08:12:52.167Z,67.39
2023-01-13T08:13:46.532Z,68.69
2023-01-13T08:14:45.527Z,76.10
2023-01-13T08:15:45.559Z,74.29
2023-01-13T08:16:45.654Z,73.16
2023-01-13T08:17:45.507Z,73.65
2023-01-13T08:18:45.507Z,73.48
2023-01-13T08:19:45.507Z,74.12
2023-01-13T08:20:45.522Z,66.67
2023-01-13T08:21:45.553Z,72.27
2023-01-13T08:22:45.512Z,73.65
2023-01-13T08:23:45.493Z,69.91
2023-01-13T08:24:45.482Z,74.35
2023-01-13T08:25:45.475Z,68.51
2023-01-13T08:26:45.601Z,64.52
2023-01-13T08:27:45.483Z,71.52
2023-01-13T08:28:45.444Z,75.94
2023-01-13T08:29:45.501Z,72.66
2023-01-13T08:30:45.491Z,72.45
2023-01-13T08:31:45.423Z,71.63
2023-01-13T08:32:45.446Z,70.93
2023-01-13T08:33:45.451Z,74.08
2023-01-13T08:34:45.415Z,77.13
2023-01-13T08:35:45.411Z,72.00
2023-01-13T08:36:45.417Z,73.09
2023-01-13T08:37:45.422Z,70.95
2023-01-13T08:38:45.411Z,74.55
2023-01-13T08:39:45.437Z,75.05
2023-01-13T08:40:45.387Z,74.13
2023-01-13T08:41:45.383Z,73.95
2023-01-13T08:42:48.378Z,72.65
2023-01-13T08:43:45.494Z,72.09
2023-01-13T08:44:45.359Z,71.56
2023-01-13T08:45:45.424Z,70.24
2023-01-13T08:46:45.345Z,70.62
2023-01-13T08:47:45.335Z,76.09
2023-01-13T08:48:45.375Z,68.93
2023-01-13T08:49:45.346Z,72.62
2023-01-13T08:50:45.366Z,72.39
2023-01-13T08:51:45.351Z,72.07
2023-01-13T08:52:45.306Z,71.55
2023-01-13T08:53:45.320Z,72.29
2023-01-13T08:54:45.303Z,69.11
2023-01-13T08:55:45.281Z,73.02
2023-01-13T08:56:45.325Z,73.43
2023-01-13T08:57:46.291Z,72.98
2023-01-13T08:58:45.272Z,73.26
2023-01-13T08:59:45.305Z,71.03
2023-01-13T09:00:45.267Z,71.52
2023-01-13T09:01:45.423Z,71.96
2023-01-13T09:02:45.249Z,70.66
2023-01-13T09:03:45.334Z,69.98
2023-01-13T09:04:45.299Z,71.01
2023-01-13T09:05:45.223Z,73.98
2023-01-13T09:06:45.221Z,73.82
2023-01-13T09:07:45.210Z,75.60
2023-01-13T09:08:45.224Z,73.32
2023-01-13T09:09:45.238Z,73.56
2023-01-13T09:10:45.193Z,73.87
2023-01-13T09:11:45.197Z,74.05
2023-01-13T09:12:45.185Z,71.23
2023-01-13T09:13:45.181Z,68.58
2023-01-13T09:14:45.180Z,74.16
2023-01-13T09:15:45.209Z,69.30
2023-01-13T09:16:45.185Z,70.13
2023-01-13T09:17:45.150Z,71.05
2023-01-13T09:18:45.136Z,68.45
2023-01-13T09:19:45.186Z,67.01
2023-01-13T09:20:45.124Z,68.72
2023-01-13T09:21:45.131Z,73.70
2023-01-13T09:22:45.126Z,67.20
2023-01-13T09:23:45.120Z,70.99
2023-01-13T09:24:45.112Z,76.10
2023-01-13T09:25:45.159Z,72.25
2023-01-13T09:26:45.087Z,70.85
2023-01-13T09:27:45.090Z,67.15
2023-01-13T09:28:45.225Z,70.30
2023-01-13T09:29:45.066Z,72.59
2023-01-13T09:30:45.076Z,71.58
2023-01-13T09:31:45.158Z,74.76
2023-01-13T09:32:45.047Z,69.83
2023-01-13T09:33:45.049Z,72.12
2023-01-13T09:34:45.081Z,67.99
2023-01-13T09:35:45.050Z,73.17
2023-01-13T09:36:45.016Z,73.85
2023-01-13T09:37:45.049Z,72.08
2023-01-13T09:38:45.010Z,75.65
2023-01-13T09:39:45.035Z,73.63
2023-01-13T09:40:45.086Z,67.17
2023-01-13T09:41:45.022Z,72.83
2023-01-13T09:42:44.983Z,71.97
2023-01-13T09:43:45.058Z,72.63
2023-01-13T09:44:44.982Z,74.05
2023-01-13T09:45:45.003Z,71.42
2023-01-13T09:46:45.282Z,73.36
2023-01-13T09:47:45.002Z,72.86
2023-01-13T09:48:44.997Z,72.68
2023-01-13T09:49:44.937Z,73.86
2023-01-13T09:50:44.934Z,74.74
2023-01-13T09:51:44.972Z,73.55
2023-01-13T09:52:44.943Z,70.18
2023-01-13T09:53:45.034Z,67.76
2023-01-13T09:54:45.111Z,74.61
2023-01-13T09:55:44.901Z,72.25
2023-01-13T09:56:44.932Z,72.91
2023-01-13T09:57:44.925Z,72.15
2023-01-13T09:58:44.881Z,69.29
2023-01-13T09:59:44.910Z,71.73
2023-01-13T10:00:44.972Z,72.76
2023-01-13T10:01:44.869Z,75.66
2023-01-13T10:02:44.869Z,71.05
2023-01-13T10:03:44.961Z,72.76
2023-01-13T10:04:44.915Z,72.53
2023-01-13T10:05:44.841Z,69.84
2023-01-13T10:06:44.889Z,69.94
2023-01-13T10:07:44.864Z,73.15
2023-01-13T10:08:44.829Z,73.13
2023-01-13T10:09:44.821Z,72.33
2023-01-13T10:10:45.810Z,73.96
2023-01-13T10:11:44.823Z,72.56
2023-01-13T10:12:44.820Z,74.53
2023-01-13T10:13:44.796Z,71.01
2023-01-13T10:14:44.781Z,75.41
2023-01-13T10:15:44.819Z,73.07
2023-01-13T10:16:44.807Z,72.84
2023-01-13T10:17:44.778Z,70.37
2023-01-13T10:18:44.947Z,71.22
2023-01-13T10:19:44.770Z,70.54
2023-01-13T10:20:44.817Z,68.81
2023-01-13T10:21:44.762Z,69.36
2023-01-13T10:22:44.761Z,70.96
2023-01-13T10:23:44.740Z,73.15
2023-01-13T10:24:44.761Z,74.37
2023-01-13T10:25:44.742Z,74.80
2023-01-13T10:26:44.715Z,74.17
2023-01-13T10:27:44.697Z,72.16
2023-01-13T10:28:44.720Z,72.52
2023-01-13T10:29:44.706Z,69.77
2023-01-13T10:30:44.680Z,70.62
2023-01-13T10:31:44.873Z,69.96
2023-01-13T10:32:44.677Z,69.67
2023-01-13T10:33:44.691Z,71.32
2023-01-13T10:34:44.734Z,71.82
2023-01-13T10:35:44.647Z,71.07
2023-01-13T10:36:44.661Z,72.21
2023-01-13T10:37:44.657Z,71.23
2023-01-13T10:38:44.630Z,72.32
2023-01-13T10:39:44.673Z,71.27
2023-01-13T10:40:45.030Z,73.65
2023-01-13T10:41:44.644Z,72.35
2023-01-13T10:42:44.608Z,69.48
2023-01-13T10:43:44.610Z,72.36
2023-01-13T10:44:44.606Z,72.39
2023-01-13T10:45:44.605Z,73.94
2023-01-13T10:46:45.650Z,72.80
2023-01-13T10:47:44.600Z,72.36
2023-01-13T10:48:44.577Z,72.40
2023-01-13T10:49:44.564Z,74.79
2023-01-13T10:50:44.622Z,72.09
2023-01-13T10:51:44.573Z,73.32
2023-01-13T10:52:44.732Z,74.35
2023-01-13T10:53:44.649Z,71.80
2023-01-13T10:54:44.546Z,71.02
2023-01-13T10:55:44.552Z,71.95
2023-01-13T10:56:44.537Z,71.82
2023-01-13T10:57:44.524Z,71.73
2023-01-13T10:58:44.569Z,74.42
2023-01-13T10:59:44.575Z,72.41
2023-01-13T11:00:44.504Z,72.62
2023-01-13T11:01:44.583Z,72.00
2023-01-13T11:02:44.567Z,73.33
2023-01-13T11:03:44.540Z,71.73
2023-01-13T11:04:44.561Z,73.20
2023-01-13T11:05:44.476Z,73.66
2023-01-13T11:06:44.480Z,72.24
2023-01-13T11:07:44.466Z,72.71
2023-01-13T11:08:44.472Z,73.79
2023-01-13T11:09:44.498Z,70.82
2023-01-13T11:10:44.530Z,76.07
2023-01-13T11:11:44.460Z,72.37
2023-01-13T11:12:44.431Z,72.73
2023-01-13T11:13:44.504Z,69.52
2023-01-13T11:14:44.435Z,73.65
2023-01-13T11:15:44.464Z,68.53
2023-01-13T11:16:53.018Z,70.77
2023-01-13T11:17:46.419Z,75.44
2023-01-13T11:18:44.443Z,74.79
2023-01-13T11:19:44.468Z,74.76
2023-01-13T11:20:44.523Z,71.64
2023-01-13T11:21:44.380Z,74.11
2023-01-13T11:22:44.373Z,70.72
2023-01-13T11:23:44.398Z,71.30
2023-01-13T11:24:44.362Z,72.58
2023-01-13T11:25:44.378Z,71.84
2023-01-13T11:26:44.398Z,71.97
2023-01-13T11:27:44.333Z,74.33
2023-01-13T11:28:44.353Z,72.62
2023-01-13T11:29:44.331Z,72.73
2023-01-13T11:30:44.377Z,73.64
2023-01-13T11:31:44.363Z,70.10
2023-01-13T11:32:44.322Z,69.25
2023-01-13T11:33:44.359Z,73.30
2023-01-13T11:34:44.295Z,69.90
2023-01-13T11:35:44.294Z,72.27
2023-01-13T11:36:44.366Z,75.36
2023-01-13T11:37:44.281Z,70.59
2023-01-13T11:38:44.299Z,73.38
2023-01-13T11:39:44.335Z,71.71
2023-01-13T11:40:44.293Z,73.74
2023-01-13T11:41:44.297Z,72.56
2023-01-13T11:42:44.242Z,73.92
2023-01-13T11:43:44.241Z,72.97
2023-01-13T11:44:44.239Z,74.21
2023-01-13T11:45:44.229Z,66.93
2023-01-13T11:46:44.965Z,72.28
2023-01-13T11:47:44.220Z,69.95
2023-01-13T11:48:44.206Z,73.02
2023-01-13T11:49:44.198Z,72.29
2023-01-13T11:50:44.194Z,70.34
2023-01-13T11:51:44.204Z,69.69
2023-01-13T11:52:44.174Z,70.71
2023-01-13T11:53:44.163Z,71.82
2023-01-13T11:54:44.145Z,73.80
2023-01-13T11:55:45.168Z,69.03
2023-01-13T11:56:44.200Z,73.40
2023-01-13T11:57:44.165Z,68.86
2023-01-13T11:58:50.805Z,71.14
2023-01-13T11:59:46.146Z,72.11
2023-01-13T12:00:44.137Z,71.34
2023-01-13T12:01:44.169Z,72.64
2023-01-13T12:02:44.170Z,74.29
2023-01-13T12:03:44.100Z,72.23
2023-01-13T12:04:44.117Z,72.65
2023-01-13T12:05:44.089Z,73.92
2023-01-13T12:06:44.097Z,71.70
2023-01-13T12:07:44.122Z,72.34
2023-01-13T12:08:44.107Z,71.81
2023-01-13T12:09:44.071Z,73.93
2023-01-13T12:10:44.080Z,72.85
2023-01-13T12:11:44.069Z,72.98
2023-01-13T12:12:44.068Z,73.53
2023-01-13T12:13:44.096Z,71.15
2023-01-13T12:14:44.053Z,74.19
2023-01-13T12:15:44.037Z,74.25
2023-01-13T12:16:44.055Z,73.12
2023-01-13T12:17:44.011Z,72.97
2023-01-13T12:18:44.028Z,71.50
2023-01-13T12:19:44.023Z,73.92
2023-01-13T12:20:44.033Z,70.48
2023-01-13T12:21:43.993Z,72.81
2023-01-13T12:22:43.988Z,72.58
2023-01-13T12:23:43.993Z,73.53
2023-01-13T12:24:44.013Z,73.47
2023-01-13T12:25:43.984Z,72.79
2023-01-13T12:26:43.989Z,71.07
2023-01-13T12:27:45.326Z,72.97
2023-01-13T12:28:44.002Z,75.49
2023-01-13T12:29:43.964Z,72.88
2023-01-13T12:30:43.943Z,72.16
2023-01-13T12:31:43.961Z,73.67
2023-01-13T12:32:43.935Z,74.83
2023-01-13T12:33:43.920Z,72.11
2023-01-13T12:34:43.928Z,75.06
2023-01-13T12:35:43.993Z,74.13
2023-01-13T12:36:43.911Z,75.63
2023-01-13T12:37:43.931Z,73.04
2023-01-13T12:38:43.890Z,73.18
2023-01-13T12:39:43.935Z,76.18
2023-01-13T12:40:43.898Z,74.80
2023-01-13T12:41:43.923Z,74.04
2023-01-13T12:42:43.867Z,74.20
2023-01-13T12:43:43.870Z,70.85
2023-01-13T12:44:43.847Z,72.87
2023-01-13T12:45:43.911Z,72.12
2023-01-13T12:46:43.856Z,72.98
2023-01-13T12:47:43.836Z,72.18
2023-01-13T12:48:43.825Z,74.86
2023-01-13T12:49:43.829Z,73.31
2023-01-13T12:50:43.817Z,71.83
2023-01-13T12:51:43.831Z,74.22
2023-01-13T12:52:43.858Z,69.93